»·PEaware :: SAS186 KRNO-KLAX

SAS186 :: KRNO-KLAX

FLIGHT INFORMATION

Flight Status: Arrived
Operator:
SAS
More flights by this operator :: More flights under this callsign
Pilot: Josh G. (4619)
Aircraft: BOEING 767-300
(B763)
More flights by this aircraft type
Origin: KRNO Reno/Tahoe Intl
United States
Destination: KLAX Los Angeles Intl
United States
More flights between these airports :: More routes between these airports
Route: +FMG J7 DERBB SADDE6
File this flight plan on PilotEdge
Remarks:
Altitude:
(Current/Filed)
31,000ft
Speed:
(Current/Filed)
450kts
Departed: 13-Dec-15 08:05 PM
Arrived: 13-Dec-15 09:09 PM
Distance/Time
Traveled:
339nm/1:04
Distance/Time
To Go:
Arrived

Flight Plot

Page will automatically refresh every two minutes.


Map Options




Map Legend


Flown Route
Filed Route
Departure Airport
Arrival Airport
Navaid (VOR, NDB)
Fix

Horizontal Profiles

Position Reports

Time Latitude Longitude Heading Altitude Ground
Speed
13-Dec-15 19:59 39.483782 -119.770604 89 4426ft 6kts
13-Dec-15 20:00 39.483794 -119.769838 84 4426ft 5kts
13-Dec-15 20:01 39.484651 -119.769311 0 4426ft 0kts
13-Dec-15 20:02 39.495618 -119.769314 358 4429ft 156kts
13-Dec-15 20:03 39.515640 -119.719139 122 6712ft 256kts
13-Dec-15 20:04 39.450039 -119.665893 164 10029ft 298kts
13-Dec-15 20:05 39.356086 -119.652347 182 12459ft 377kts
13-Dec-15 20:06 39.251046 -119.648797 185 16692ft 388kts
13-Dec-15 20:07 39.142952 -119.646016 187 20284ft 403kts
13-Dec-15 20:08 39.029203 -119.643121 187 23295ft 422kts
13-Dec-15 20:09 38.910526 -119.640102 187 25937ft 439kts
13-Dec-15 20:10 38.787858 -119.636957 188 28569ft 447kts
13-Dec-15 20:11 38.665702 -119.633812 189 30817ft 433kts
13-Dec-15 20:12 38.545468 -119.630863 189 30779ft 437kts
13-Dec-15 20:13 38.426175 -119.627871 189 30774ft 436kts
13-Dec-15 20:14 38.306273 -119.624875 189 30774ft 436kts
13-Dec-15 20:15 38.185538 -119.621869 189 30775ft 436kts
13-Dec-15 20:16 38.065277 -119.618884 189 30775ft 436kts
13-Dec-15 20:16 37.964445 -119.616389 189 30775ft 436kts
13-Dec-15 20:17 37.844170 -119.613422 189 30775ft 436kts
13-Dec-15 20:19 37.704957 -119.609980 189 30800ft 435kts
13-Dec-15 20:19 37.605618 -119.607533 190 30865ft 433kts
13-Dec-15 20:20 37.484595 -119.604728 188 30982ft 457kts
13-Dec-15 20:21 37.360454 -119.601584 189 31015ft 455kts
13-Dec-15 20:22 37.235568 -119.598550 189 31017ft 455kts
13-Dec-15 20:23 37.111047 -119.595535 189 31017ft 454kts
13-Dec-15 20:24 36.986833 -119.597415 191 31018ft 452kts
13-Dec-15 20:25 36.862696 -119.599577 191 31019ft 452kts
13-Dec-15 20:26 36.745615 -119.601599 191 31020ft 452kts
13-Dec-15 20:27 36.620788 -119.603750 191 31021ft 452kts
13-Dec-15 20:28 36.496150 -119.605889 191 31042ft 453kts
13-Dec-15 20:29 36.371936 -119.608012 191 31043ft 453kts
13-Dec-15 20:30 36.246671 -119.610148 191 31043ft 453kts
13-Dec-15 20:31 36.121652 -119.612273 191 31044ft 453kts
13-Dec-15 20:32 35.996829 -119.614387 191 31045ft 452kts
13-Dec-15 20:34 35.872127 -119.618698 192 31045ft 451kts
13-Dec-15 20:35 35.748512 -119.623266 193 31046ft 450kts
13-Dec-15 20:36 35.624279 -119.627842 193 31047ft 449kts
13-Dec-15 20:37 35.501728 -119.632345 194 31047ft 448kts
13-Dec-15 20:38 35.381534 -119.636767 194 31042ft 448kts
13-Dec-15 20:39 35.256173 -119.628687 174 31042ft 479kts
13-Dec-15 20:40 35.139053 -119.542871 152 30467ft 509kts
13-Dec-15 20:41 35.025200 -119.444525 153 28907ft 505kts
13-Dec-15 20:42 34.912385 -119.348682 152 26746ft 493kts
13-Dec-15 20:43 34.801863 -119.255181 152 24249ft 485kts
13-Dec-15 20:44 34.695372 -119.165376 152 24002ft 468kts
13-Dec-15 20:45 34.589042 -119.076018 152 23768ft 473kts
13-Dec-15 20:46 34.482760 -118.986889 152 21933ft 452kts
13-Dec-15 20:47 34.386776 -118.906587 152 17544ft 414kts
13-Dec-15 20:48 34.294011 -118.858320 172 13846ft 357kts
13-Dec-15 20:49 34.200413 -118.823626 172 12514ft 349kts
13-Dec-15 20:50 34.120110 -118.760995 122 10425ft 379kts
13-Dec-15 20:51 34.096786 -118.648301 116 8555ft 314kts
13-Dec-15 20:52 34.059152 -118.560208 124 7044ft 294kts
13-Dec-15 20:53 34.019483 -118.476100 121 7042ft 300kts
13-Dec-15 20:54 34.016635 -118.380876 81 6262ft 288kts
13-Dec-15 20:55 34.022592 -118.298418 81 4948ft 240kts
13-Dec-15 20:56 34.028004 -118.223146 81 3958ft 213kts
13-Dec-15 20:57 34.033130 -118.157856 81 4005ft 200kts
13-Dec-15 20:58 34.020403 -118.100889 163 3564ft 196kts
13-Dec-15 20:59 33.982297 -118.128915 241 2656ft 194kts
13-Dec-15 21:00 33.973791 -118.189007 265 2490ft 186kts
13-Dec-15 21:01 33.967976 -118.245057 266 2487ft 181kts
13-Dec-15 21:02 33.962469 -118.299533 265 2516ft 159kts
13-Dec-15 21:03 33.957739 -118.348726 263 1500ft 144kts
13-Dec-15 21:04 33.952998 -118.392798 263 298ft 128kts
13-Dec-15 21:05 33.949475 -118.425100 244 136ft 42kts
13-Dec-15 21:06 33.946405 -118.426458 85 136ft 10kts
13-Dec-15 21:07 33.946910 -118.421763 83 136ft 17kts
13-Dec-15 21:08 33.947452 -118.416446 82 136ft 16kts
13-Dec-15 21:09 33.948026 -118.412126 81 136ft 11kts
13-Dec-15 21:09 33.948269 -118.409450 94 136ft 9kts
13-Dec-15 21:11 33.947081 -118.407785 174 136ft 3kts
13-Dec-15 21:11 33.947002 -118.407774 174 136ft 0kts
13-Dec-15 21:16 33.947002 -118.407774 174 136ft 0kts

Navigation Log

Ident Type
1. KRNO Airport
2. FMG Navaid
3. GENNE Fix
4. FRA Navaid
5. REBRG Fix
6. DERBB Fix
7. REYES Fix
8. FIM Navaid
9. SYMON Fix
10. SADDE Fix
11. BAYST Fix
12. SMO Navaid
13. JAVSI Fix
14. KLAX Airport